Time;durP1;ratioP1;P1;durP2;ratioP2;P2;SDS_P1;SDS_P2;PMS_P1;PMS_P2;Temp;Humidity;BMP_temperature;BMP_pressure;BME280_temperature;BME280_humidity;BME280_pressure;Samples;Min_cycle;Max_cycle;Signal;HPM_P1;HPM_P2
2022/06/07 00:01:26;;;;;;;;;;;;;;;;;;5094545;28;19999;-44
2022/06/07 00:03:54;;;;;;;;;;;;;;;;;;5094578;28;19916;-44
2022/06/07 00:06:19;;;;;;;;;;;;;;;;;;5094605;28;19908;-44
2022/06/07 00:08:44;;;;;;;;;;;;;;;;;;5094282;28;19946;-45
2022/06/07 00:11:10;;;;;;;;;;;;;;;;;;5094413;28;19918;-44
2022/06/07 00:13:38;;;;;;;;;;;;;;;;;;5094448;28;19962;-44
2022/06/07 00:16:06;;;;;;;;;;;;;;;;;;5094420;28;19912;-44
2022/06/07 00:18:31;;;;;;;;;;;;;;;;;;5094462;28;20371;-44
2022/06/07 00:20:56;;;;;;;;;;;;;;;;;;5094395;28;19943;-44
2022/06/07 00:23:21;;;;;;;;;;;;;;;;;;5094250;28;19920;-44
2022/06/07 00:25:46;;;;;;;;;;;;;;;;;;5094462;28;19912;-44
2022/06/07 00:28:11;;;;;;;;;;;;;;;;;;5094418;28;19920;-44
2022/06/07 00:30:37;;;;;;;;;;;;;;;;;;5094241;28;19986;-45
2022/06/07 00:33:04;;;;;;;;;;;;;;;;;;5094312;28;19923;-44
2022/06/07 00:35:31;;;;;;;;;;;;;;;;;;5094318;28;19908;-46
2022/06/07 00:37:56;;;;;;;;;;;;;;;;;;5096310;28;20370;-44
2022/06/07 00:40:21;;;;;;;;;;;;;;;;;;5098002;28;20011;-44
2022/06/07 00:42:49;;;;;;;;;;;;;;;;;;5098149;28;19919;-43
2022/06/07 00:45:17;;;;;;;;;;;;;;;;;;5096814;28;20270;-45
2022/06/07 00:47:45;;;;;;;;;;;;;;;;;;5098135;28;19934;-44
2022/06/07 00:50:11;;;;;;;;;;;;;;;;;;5098012;28;19914;-44
2022/06/07 00:52:36;;;;;;;;;;;;;;;;;;5097923;28;19912;-43
2022/06/07 00:55:02;;;;;;;;;;;;;;;;;;5098020;28;19908;-44
2022/06/07 00:57:29;;;;;;;;;;;;;;;;;;5097828;28;19908;-44
2022/06/07 00:59:54;;;;;;;;;;;;;;;;;;5096584;28;19908;-45
2022/06/07 01:02:21;;;;;;;;;;;;;;;;;;5097822;28;19933;-45
2022/06/07 01:04:46;;;;;;;;;;;;;;;;;;5097810;28;19908;-44
2022/06/07 01:12:39;;;;;;;;;;;;;;;;;;5097767;28;19954;-45
2022/06/07 01:15:04;;;;;;;;;;;;;;;;;;5097512;28;20355;-44
2022/06/07 01:17:30;;;;;;;;;;;;;;;;;;5097470;28;19940;-45
2022/06/07 01:19:56;;;;;;;;;;;;;;;;;;5097575;28;20355;-45
2022/06/07 01:22:21;;;;;;;;;;;;;;;;;;5097211;28;19985;-44
2022/06/07 01:24:46;;;;;;;;;;;;;;;;;;5097503;28;20277;-44
2022/06/07 01:27:14;;;;;;;;;;;;;;;;;;5097279;28;19912;-44
2022/06/07 01:29:39;;;;;;;;;;;;;;;;;;5097330;28;19915;-45
2022/06/07 01:32:04;;;;;;;;;;;;;;;;;;5097208;28;19912;-44
2022/06/07 01:34:29;;;;;;;;;;;;;;;;;;5097212;28;19919;-44
2022/06/07 01:36:56;;;;;;;;;;;;;;;;;;5097053;28;19908;-44
2022/06/07 01:42:05;;;;;;;;;;;;;;;;;;5097124;28;19965;-44
2022/06/07 01:44:30;;;;;;;;;;;;;;;;;;5097018;28;20362;-43
2022/06/07 01:46:56;;;;;;;;;;;;;;;;;;5097012;28;20382;-44
2022/06/07 01:49:23;;;;;;;;;;;;;;;;;;5095822;28;19951;-44
2022/06/07 01:51:48;;;;;;;;;;;;;;;;;;5096767;28;19908;-44
2022/06/07 01:54:14;;;;;;;;;;;;;;;;;;5096850;28;20350;-44
2022/06/07 01:56:40;;;;;;;;;;;;;;;;;;5096767;28;19939;-43
2022/06/07 01:59:06;;;;;;;;;;;;;;;;;;5096767;28;19912;-44
2022/06/07 02:01:31;;;;;;;;;;;;;;;;;;5096599;28;19918;-45
2022/06/07 02:03:56;;;;;;;;;;;;;;;;;;5096547;28;19916;-44
2022/06/07 02:06:24;;;;;;;;;;;;;;;;;;5096629;28;19908;-45
2022/06/07 02:08:49;;;;;;;;;;;;;;;;;;5096460;28;19912;-44
2022/06/07 02:11:16;;;;;;;;;;;;;;;;;;5096538;28;19905;-44
2022/06/07 02:13:44;;;;;;;;;;;;;;;;;;5096565;28;20357;-45
2022/06/07 02:16:10;;;;;;;;;;;;;;;;;;5096524;28;20443;-46
2022/06/07 02:18:35;;;;;;;;;;;;;;;;;;5096535;28;19943;-44
2022/06/07 02:21:00;;;;;;;;;;;;;;;;;;5096175;28;19938;-45
2022/06/07 02:23:25;;;;;;;;;;;;;;;;;;5096139;28;19954;-45
2022/06/07 02:25:53;;;;;;;;;;;;;;;;;;5096146;28;19908;-44
2022/06/07 02:28:19;;;;;;;;;;;;;;;;;;5096089;28;19916;-44
2022/06/07 02:30:44;;;;;;;;;;;;;;;;;;5096133;28;19912;-44
2022/06/07 02:33:09;;;;;;;;;;;;;;;;;;5096133;28;19914;-44
2022/06/07 02:35:40;;;;;;;;;;;;;;;;;;5095921;28;20395;-44
2022/06/07 02:38:05;;;;;;;;;;;;;;;;;;5096182;28;19908;-44
2022/06/07 02:40:33;;;;;;;;;;;;;;;;;;5095548;28;20427;-44
2022/06/07 02:42:58;;;;;;;;;;;;;;;;;;5095869;28;19951;-44
2022/06/07 02:45:23;;;;;;;;;;;;;;;;;;5095774;28;19908;-45
2022/06/07 02:47:49;;;;;;;;;;;;;;;;;;5095638;28;19908;-44
2022/06/07 02:50:15;;;;;;;;;;;;;;;;;;5095688;28;19962;-44
2022/06/07 02:52:40;;;;;;;;;;;;;;;;;;5095585;28;19965;-44
2022/06/07 02:55:05;;;;;;;;;;;;;;;;;;5095717;28;19939;-44
2022/06/07 02:57:31;;;;;;;;;;;;;;;;;;5095613;28;20365;-44
2022/06/07 02:59:56;;;;;;;;;;;;;;;;;;5095248;28;20374;-44
2022/06/07 03:02:24;;;;;;;;;;;;;;;;;;5095463;28;19912;-45
2022/06/07 03:04:49;;;;;;;;;;;;;;;;;;5095428;28;19917;-44
2022/06/07 03:07:14;;;;;;;;;;;;;;;;;;5095298;28;19908;-44
2022/06/07 03:09:39;;;;;;;;;;;;;;;;;;5095234;28;20275;-44
2022/06/07 03:12:06;;;;;;;;;;;;;;;;;;5095320;28;20406;-44
2022/06/07 03:14:32;;;;;;;;;;;;;;;;;;5095539;28;19908;-45
2022/06/07 03:16:59;;;;;;;;;;;;;;;;;;5095322;28;19962;-44
2022/06/07 03:19:28;;;;;;;;;;;;;;;;;;5095172;28;19939;-44
2022/06/07 03:21:56;;;;;;;;;;;;;;;;;;5095093;28;19916;-44
2022/06/07 03:24:21;;;;;;;;;;;;;;;;;;5095076;28;19914;-44
2022/06/07 03:26:49;;;;;;;;;;;;;;;;;;5095128;28;19998;-44
2022/06/07 03:29:14;;;;;;;;;;;;;;;;;;5095457;28;19930;-45
2022/06/07 03:31:41;;;;;;;;;;;;;;;;;;5095013;28;20272;-44
2022/06/07 03:34:07;;;;;;;;;;;;;;;;;;5095088;28;20274;-44
2022/06/07 03:36:32;;;;;;;;;;;;;;;;;;5095136;28;19908;-43
2022/06/07 03:38:57;;;;;;;;;;;;;;;;;;5094982;28;19908;-44
2022/06/07 03:41:25;;;;;;;;;;;;;;;;;;5094529;28;19926;-44
2022/06/07 03:43:50;;;;;;;;;;;;;;;;;;5093494;28;20363;-44
2022/06/07 03:46:16;;;;;;;;;;;;;;;;;;5094775;28;19914;-45
2022/06/07 03:48:41;;;;;;;;;;;;;;;;;;5094686;28;20480;-44
2022/06/07 03:51:06;;;;;;;;;;;;;;;;;;5094731;28;20313;-44
2022/06/07 03:53:32;;;;;;;;;;;;;;;;;;5094665;28;20355;-44
2022/06/07 03:55:57;;;;;;;;;;;;;;;;;;5094704;28;19908;-44
2022/06/07 03:58:25;;;;;;;;;;;;;;;;;;5094613;28;20375;-45
2022/06/07 04:00:52;;;;;;;;;;;;;;;;;;5094629;28;19908;-44
2022/06/07 04:03:17;;;;;;;;;;;;;;;;;;5094630;28;20290;-44
2022/06/07 04:05:42;;;;;;;;;;;;;;;;;;5094589;28;19913;-44
2022/06/07 04:08:16;;;;;;;;;;;;;;;;;;5094545;28;19951;-44
2022/06/07 04:10:42;;;;;;;;;;;;;;;;;;5094484;28;19954;-44
2022/06/07 04:13:07;;;;;;;;;;;;;;;;;;5096789;28;19908;-44
2022/06/07 04:15:32;;;;;;;;;;;;;;;;;;5098790;28;19908;-43
2022/06/07 04:17:59;;;;;;;;;;;;;;;;;;5098539;28;19912;-44
2022/06/07 04:20:27;;;;;;;;;;;;;;;;;;5098551;28;19908;-44
2022/06/07 04:22:52;;;;;;;;;;;;;;;;;;5098530;28;19912;-46
2022/06/07 04:25:17;;;;;;;;;;;;;;;;;;5098359;28;19908;-44
2022/06/07 04:27:45;;;;;;;;;;;;;;;;;;5098382;28;19934;-44
2022/06/07 04:30:12;;;;;;;;;;;;;;;;;;5098463;28;19915;-44
2022/06/07 04:32:39;;;;;;;;;;;;;;;;;;5098360;28;19905;-44
2022/06/07 04:35:04;;;;;;;;;;;;;;;;;;5098330;28;19908;-44
2022/06/07 04:37:29;;;;;;;;;;;;;;;;;;5098255;28;19908;-45
2022/06/07 04:39:54;;;;;;;;;;;;;;;;;;5097998;28;19991;-43
2022/06/07 04:42:20;;;;;;;;;;;;;;;;;;5098157;28;19985;-44
2022/06/07 04:44:51;;;;;;;;;;;;;;;;;;5098201;28;19912;-44
2022/06/07 04:47:16;;;;;;;;;;;;;;;;;;5098071;28;19912;-45
2022/06/07 04:49:41;;;;;;;;;;;;;;;;;;5098039;28;19969;-44
2022/06/07 04:52:08;;;;;;;;;;;;;;;;;;5097897;28;19956;-44
2022/06/07 04:54:37;;;;;;;;;;;;;;;;;;5097861;28;19908;-44
2022/06/07 04:57:04;;;;;;;;;;;;;;;;;;5094583;28;20431;-44
2022/06/07 04:59:29;;;;;;;;;;;;;;;;;;5077688;28;19908;-44
2022/06/07 05:01:54;;;;;;;;;;;;;;;;;;5077359;28;19913;-44
2022/06/07 05:04:20;;;;;;;;;;;;;;;;;;5077503;28;19908;-43
2022/06/07 05:06:48;;;;;;;;;;;;;;;;;;5077354;28;19912;-44
2022/06/07 05:09:13;;;;;;;;;;;;;;;;;;5077528;28;19908;-43
2022/06/07 05:11:38;;;;;;;;;;;;;;;;;;5077467;28;19915;-45
2022/06/07 05:14:06;;;;;;;;;;;;;;;;;;5077245;28;19931;-44
2022/06/07 05:16:32;;;;;;;;;;;;;;;;;;5078221;28;19923;-45
2022/06/07 05:18:58;;;;;;;;;;;;;;;;;;5081006;28;19908;-46
2022/06/07 05:21:23;;;;;;;;;;;;;;;;;;5080707;28;20011;-45
2022/06/07 05:23:48;;;;;;;;;;;;;;;;;;5080338;28;19940;-48
2022/06/07 05:26:16;;;;;;;;;;;;;;;;;;5080745;28;19908;-46
2022/06/07 05:28:42;;;;;;;;;;;;;;;;;;5079880;28;19927;-46
2022/06/07 05:31:08;;;;;;;;;;;;;;;;;;5087719;28;19971;-46
2022/06/07 05:33:36;;;;;;;;;;;;;;;;;;5089571;28;19915;-50
2022/06/07 05:36:03;;;;;;;;;;;;;;;;;;5093994;28;19919;-47
2022/06/07 05:38:29;;;;;;;;;;;;;;;;;;5093064;28;19916;-46
2022/06/07 05:40:54;;;;;;;;;;;;;;;;;;5093889;28;19941;-47
2022/06/07 05:43:22;;;;;;;;;;;;;;;;;;5094280;28;19941;-46
2022/06/07 05:45:48;;;;;;;;;;;;;;;;;;5090702;28;19920;-47
2022/06/07 05:48:13;;;;;;;;;;;;;;;;;;5087379;28;19986;-46
2022/06/07 05:50:48;;;;;;;;;;;;;;;;;;5082207;28;19942;-48
2022/06/07 05:53:13;;;;;;;;;;;;;;;;;;5081651;28;19985;-47
2022/06/07 05:55:41;;;;;;;;;;;;;;;;;;5083572;28;19912;-47
2022/06/07 05:58:07;;;;;;;;;;;;;;;;;;5082250;28;21938;-45
2022/06/07 06:00:32;;;;;;;;;;;;;;;;;;5086114;28;20709;-48
2022/06/07 06:02:58;;;;;;;;;;;;;;;;;;5065735;28;19924;-47
2022/06/07 06:05:23;;;;;;;;;;;;;;;;;;5060435;28;19913;-47
2022/06/07 06:10:32;;;;;;;;;;;;;;;;;;5075059;28;19997;-53
2022/06/07 06:12:57;;;;;;;;;;;;;;;;;;5053718;28;19971;-46
2022/06/07 06:15:22;;;;;;;;;;;;;;;;;;5046397;28;19967;-46
2022/06/07 06:17:47;;;;;;;;;;;;;;;;;;5031799;28;19982;-45
2022/06/07 06:20:13;;;;;;;;;;;;;;;;;;5036369;28;19916;-46
2022/06/07 06:22:38;;;;;;;;;;;;;;;;;;4977395;28;19928;-45
2022/06/07 06:25:03;;;;;;;;;;;;;;;;;;4905865;28;19928;-46
2022/06/07 06:27:30;;;;;;;;;;;;;;;;;;4899052;28;20067;-47
2022/06/07 06:29:55;;;;;;;;;;;;;;;;;;4848236;28;22112;-47
2022/06/07 06:32:20;;;;;;;;;;;;;;;;;;4821189;28;20077;-48
2022/06/07 06:34:46;;;;;;;;;;;;;;;;;;4906261;28;19920;-47
2022/06/07 06:37:11;;;;;;;;;;;;;;;;;;4895617;28;19924;-47
2022/06/07 06:39:36;;;;;;;;;;;;;;;;;;4893601;28;20054;-47
2022/06/07 06:42:01;;;;;;;;;;;;;;;;;;4924038;28;20675;-47
2022/06/07 06:44:26;;;;;;;;;;;;;;;;;;4926168;28;19938;-47
2022/06/07 06:46:52;;;;;;;;;;;;;;;;;;4920458;28;19997;-48
2022/06/07 06:49:18;;;;;;;;;;;;;;;;;;4927042;28;19975;-46
2022/06/07 06:51:44;;;;;;;;;;;;;;;;;;4932047;28;19946;-48
2022/06/07 06:54:09;;;;;;;;;;;;;;;;;;4910159;28;22490;-46
2022/06/07 06:56:34;;;;;;;;;;;;;;;;;;4925081;28;20378;-47
2022/06/07 06:58:59;;;;;;;;;;;;;;;;;;4910163;28;20389;-46
2022/06/07 07:01:26;;;;;;;;;;;;;;;;;;4896299;28;22613;-47
2022/06/07 07:03:51;;;;;;;;;;;;;;;;;;4905312;28;19920;-49
2022/06/07 07:06:16;;;;;;;;;;;;;;;;;;4892227;28;20478;-50
2022/06/07 07:08:41;;;;;;;;;;;;;;;;;;4889945;28;22931;-49
2022/06/07 07:11:07;;;;;;;;;;;;;;;;;;4854053;28;32401;-49
2022/06/07 07:13:32;;;;;;;;;;;;;;;;;;4790123;28;28022;-46
2022/06/07 07:15:57;;;;;;;;;;;;;;;;;;4719357;28;34522;-48
2022/06/07 07:18:22;;;;;;;;;;;;;;;;;;4684557;28;35748;-48
2022/06/07 07:20:47;;;;;;;;;;;;;;;;;;4639148;28;25641;-45
2022/06/07 07:23:13;;;;;;;;;;;;;;;;;;4650755;28;20570;-48
2022/06/07 07:25:38;;;;;;;;;;;;;;;;;;4709378;28;26882;-47
2022/06/07 07:28:03;;;;;;;;;;;;;;;;;;4812929;28;26469;-49
2022/06/07 07:30:29;;;;;;;;;;;;;;;;;;4836062;28;22362;-46
2022/06/07 07:32:55;;;;;;;;;;;;;;;;;;4855789;28;23501;-47
2022/06/07 07:35:20;;;;;;;;;;;;;;;;;;4867708;28;29780;-48
2022/06/07 07:37:45;;;;;;;;;;;;;;;;;;4862238;28;19943;-47
2022/06/07 07:40:10;;;;;;;;;;;;;;;;;;4859471;28;34381;-47
2022/06/07 07:42:35;;;;;;;;;;;;;;;;;;4849695;28;28155;-46
2022/06/07 07:45:00;;;;;;;;;;;;;;;;;;4882704;28;20001;-46
2022/06/07 07:47:25;;;;;;;;;;;;;;;;;;4869219;28;31212;-47
2022/06/07 07:49:51;;;;;;;;;;;;;;;;;;4863416;28;26043;-48
2022/06/07 07:52:19;;;;;;;;;;;;;;;;;;4857587;28;21080;-46
2022/06/07 07:54:44;;;;;;;;;;;;;;;;;;4847681;28;29489;-47
2022/06/07 07:57:09;;;;;;;;;;;;;;;;;;4796599;28;31695;-46
2022/06/07 07:59:35;;;;;;;;;;;;;;;;;;4799938;28;35028;-48
2022/06/07 08:02:00;;;;;;;;;;;;;;;;;;4826951;28;33450;-46
2022/06/07 08:04:25;;;;;;;;;;;;;;;;;;4783914;28;34408;-47
2022/06/07 08:06:50;;;;;;;;;;;;;;;;;;4803479;28;24303;-46
2022/06/07 08:09:16;;;;;;;;;;;;;;;;;;4740825;28;28873;-49
2022/06/07 08:11:41;;;;;;;;;;;;;;;;;;4600992;28;38441;-47
2022/06/07 08:14:06;;;;;;;;;;;;;;;;;;4683078;28;21149;-47
2022/06/07 08:16:31;;;;;;;;;;;;;;;;;;4806835;28;24788;-49
2022/06/07 08:18:56;;;;;;;;;;;;;;;;;;4825647;28;19970;-46
2022/06/07 08:21:22;;;;;;;;;;;;;;;;;;4812005;28;43245;-46
2022/06/07 08:23:47;;;;;;;;;;;;;;;;;;4788912;28;25067;-45
2022/06/07 08:26:12;;;;;;;;;;;;;;;;;;4803829;28;20332;-46
2022/06/07 08:28:37;;;;;;;;;;;;;;;;;;4633454;28;19973;-46
2022/06/07 08:31:02;;;;;;;;;;;;;;;;;;4667453;28;20652;-46
2022/06/07 08:38:55;;;;;;;;;;;;;;;;;;4843889;28;28482;-47
2022/06/07 08:41:20;;;;;;;;;;;;;;;;;;4814762;28;28880;-48
2022/06/07 08:43:46;;;;;;;;;;;;;;;;;;4841143;28;29340;-45
2022/06/07 08:46:11;;;;;;;;;;;;;;;;;;4823988;28;25740;-45
2022/06/07 08:48:36;;;;;;;;;;;;;;;;;;4829782;28;31154;-45
2022/06/07 08:51:01;;;;;;;;;;;;;;;;;;4833016;28;23219;-47
2022/06/07 08:53:27;;;;;;;;;;;;;;;;;;4824882;28;32808;-47
2022/06/07 08:55:55;;;;;;;;;;;;;;;;;;4851976;28;30586;-45
2022/06/07 08:58:23;;;;;;;;;;;;;;;;;;4850398;28;19971;-47
2022/06/07 09:00:48;;;;;;;;;;;;;;;;;;4824522;28;25365;-46
2022/06/07 09:03:13;;;;;;;;;;;;;;;;;;4815093;28;27493;-45
2022/06/07 09:05:38;;;;;;;;;;;;;;;;;;4840951;28;26728;-47
2022/06/07 09:08:03;;;;;;;;;;;;;;;;;;4804702;28;29822;-46
2022/06/07 09:13:12;;;;;;;;;;;;;;;;;;4804843;28;26862;-46
2022/06/07 09:15:38;;;;;;;;;;;;;;;;;;4827650;28;19920;-47
2022/06/07 09:18:03;;;;;;;;;;;;;;;;;;4797024;28;23085;-46
2022/06/07 09:20:28;;;;;;;;;;;;;;;;;;4749009;28;21696;-46
2022/06/07 09:22:54;;;;;;;;;;;;;;;;;;4570855;28;21429;-46
2022/06/07 09:25:19;;;;;;;;;;;;;;;;;;4596556;28;23002;-46
2022/06/07 09:27:45;;;;;;;;;;;;;;;;;;4608900;28;21715;-46
2022/06/07 09:30:10;;;;;;;;;;;;;;;;;;4722818;28;38217;-48
2022/06/07 09:32:38;;;;;;;;;;;;;;;;;;4755874;28;27830;-49
2022/06/07 09:35:03;;;;;;;;;;;;;;;;;;4747562;28;44466;-48
2022/06/07 09:37:28;;;;;;;;;;;;;;;;;;4769219;28;27771;-47
2022/06/07 09:39:53;;;;;;;;;;;;;;;;;;4780265;28;25449;-47
2022/06/07 09:42:18;;;;;;;;;;;;;;;;;;4771108;28;26496;-46
2022/06/07 09:44:44;;;;;;;;;;;;;;;;;;4768686;28;27361;-46
2022/06/07 09:47:09;;;;;;;;;;;;;;;;;;4782251;28;24860;-47
2022/06/07 09:49:34;;;;;;;;;;;;;;;;;;4778814;28;24186;-46
2022/06/07 09:51:59;;;;;;;;;;;;;;;;;;4770815;28;24235;-46
2022/06/07 09:54:24;;;;;;;;;;;;;;;;;;4718447;28;30611;-47
2022/06/07 09:56:49;;;;;;;;;;;;;;;;;;4743529;28;29731;-48
2022/06/07 09:59:16;;;;;;;;;;;;;;;;;;4789669;28;32920;-46
2022/06/07 10:01:41;;;;;;;;;;;;;;;;;;4755119;28;21912;-48
2022/06/07 10:04:06;;;;;;;;;;;;;;;;;;4751811;28;19939;-46
2022/06/07 10:06:31;;;;;;;;;;;;;;;;;;4770548;28;27070;-46
2022/06/07 10:08:56;;;;;;;;;;;;;;;;;;4756426;28;38129;-46
2022/06/07 10:11:21;;;;;;;;;;;;;;;;;;4635751;28;32717;-49
2022/06/07 10:13:46;;;;;;;;;;;;;;;;;;4550618;28;37618;-46
2022/06/07 10:16:13;;;;;;;;;;;;;;;;;;4667117;28;22963;-46
2022/06/07 10:18:38;;;;;;;;;;;;;;;;;;4759222;28;26648;-46
2022/06/07 10:21:04;;;;;;;;;;;;;;;;;;4786071;28;25410;-47
2022/06/07 10:23:30;;;;;;;;;;;;;;;;;;4810546;28;34152;-47
2022/06/07 10:25:55;;;;;;;;;;;;;;;;;;4811178;28;23057;-47
2022/06/07 10:28:20;;;;;;;;;;;;;;;;;;4833041;28;31244;-45
2022/06/07 10:30:45;;;;;;;;;;;;;;;;;;4788893;28;30556;-46
2022/06/07 10:33:10;;;;;;;;;;;;;;;;;;4781605;28;33006;-47
2022/06/07 10:35:39;;;;;;;;;;;;;;;;;;4748267;28;26043;-46
2022/06/07 10:38:06;;;;;;;;;;;;;;;;;;4670760;28;25403;-46
2022/06/07 10:40:31;;;;;;;;;;;;;;;;;;4724702;22;27796;-46
2022/06/07 10:42:56;;;;;;;;;;;;;;;;;;4687332;28;26437;-45
2022/06/07 10:45:21;;;;;;;;;;;;;;;;;;4748512;28;25522;-46
2022/06/07 10:47:46;;;;;;;;;;;;;;;;;;4739542;28;22969;-49
2022/06/07 10:50:11;;;;;;;;;;;;;;;;;;4767033;28;22322;-47
2022/06/07 10:52:36;;;;;;;;;;;;;;;;;;4784726;28;25671;-45
2022/06/07 10:55:02;;;;;;;;;;;;;;;;;;4705893;28;27650;-46
2022/06/07 10:57:27;;;;;;;;;;;;;;;;;;4743800;28;26918;-45
2022/06/07 10:59:52;;;;;;;;;;;;;;;;;;4711715;28;22435;-45
2022/06/07 11:02:17;;;;;;;;;;;;;;;;;;4683680;28;25871;-46
2022/06/07 11:10:10;;;;;;;;;;;;;;;;;;4831033;28;19975;-46
2022/06/07 11:12:35;;;;;;;;;;;;;;;;;;4840336;28;22828;-47
2022/06/07 11:15:01;;;;;;;;;;;;;;;;;;4810043;28;26315;-47
2022/06/07 11:17:26;;;;;;;;;;;;;;;;;;4822246;28;20064;-45
2022/06/07 11:19:51;;;;;;;;;;;;;;;;;;4796604;28;20716;-46
2022/06/07 11:22:19;;;;;;;;;;;;;;;;;;4795212;28;19925;-46
2022/06/07 11:24:44;;;;;;;;;;;;;;;;;;4786413;28;23784;-45
2022/06/07 11:27:10;;;;;;;;;;;;;;;;;;4797128;28;19920;-45
2022/06/07 11:29:35;;;;;;;;;;;;;;;;;;4719143;28;20038;-45
2022/06/07 11:32:01;;;;;;;;;;;;;;;;;;4640725;28;25384;-46
2022/06/07 11:34:26;;;;;;;;;;;;;;;;;;4524761;28;22633;-45
2022/06/07 11:36:52;;;;;;;;;;;;;;;;;;4680286;28;26153;-45
2022/06/07 11:39:17;;;;;;;;;;;;;;;;;;4712839;28;27972;-45
2022/06/07 11:41:42;;;;;;;;;;;;;;;;;;4733916;28;39588;-45
2022/06/07 11:44:07;;;;;;;;;;;;;;;;;;4744756;28;29269;-45
2022/06/07 11:46:32;;;;;;;;;;;;;;;;;;4795589;28;29059;-45
2022/06/07 11:48:57;;;;;;;;;;;;;;;;;;4789453;28;20505;-46
2022/06/07 11:51:23;;;;;;;;;;;;;;;;;;4824358;28;19931;-46
2022/06/07 11:53:48;;;;;;;;;;;;;;;;;;4812233;28;20625;-45
2022/06/07 11:56:13;;;;;;;;;;;;;;;;;;4789882;28;32495;-46
2022/06/07 11:58:38;;;;;;;;;;;;;;;;;;4779961;28;33921;-45
2022/06/07 12:01:03;;;;;;;;;;;;;;;;;;4766873;28;33706;-47
2022/06/07 12:03:28;;;;;;;;;;;;;;;;;;4742943;28;24069;-46
2022/06/07 12:05:54;;;;;;;;;;;;;;;;;;4743631;28;33850;-46
2022/06/07 12:08:19;;;;;;;;;;;;;;;;;;4758476;28;39162;-47
2022/06/07 12:10:44;;;;;;;;;;;;;;;;;;4768234;28;40768;-47
2022/06/07 12:13:09;;;;;;;;;;;;;;;;;;4743163;28;27647;-45
2022/06/07 12:15:34;;;;;;;;;;;;;;;;;;4717461;28;30517;-46
2022/06/07 12:17:59;;;;;;;;;;;;;;;;;;4727604;28;27211;-47
2022/06/07 12:20:24;;;;;;;;;;;;;;;;;;4671546;28;33771;-46
2022/06/07 12:22:49;;;;;;;;;;;;;;;;;;4592086;28;30864;-47
2022/06/07 12:25:15;;;;;;;;;;;;;;;;;;4642501;28;22127;-46
2022/06/07 12:27:40;;;;;;;;;;;;;;;;;;4696212;28;20701;-48
2022/06/07 12:30:05;;;;;;;;;;;;;;;;;;4746405;28;20110;-46
2022/06/07 12:32:31;;;;;;;;;;;;;;;;;;4795747;28;25408;-48
2022/06/07 12:34:56;;;;;;;;;;;;;;;;;;4779810;28;23297;-45
2022/06/07 12:37:21;;;;;;;;;;;;;;;;;;4807086;28;27623;-46
2022/06/07 12:39:47;;;;;;;;;;;;;;;;;;4800451;28;23850;-46
2022/06/07 12:42:12;;;;;;;;;;;;;;;;;;4819532;28;27697;-46
2022/06/07 12:44:40;;;;;;;;;;;;;;;;;;4828378;28;23429;-47
2022/06/07 12:47:06;;;;;;;;;;;;;;;;;;4820453;28;23618;-46
2022/06/07 12:49:31;;;;;;;;;;;;;;;;;;4814974;28;27206;-46
2022/06/07 12:51:56;;;;;;;;;;;;;;;;;;4828894;28;25218;-46
2022/06/07 12:54:22;;;;;;;;;;;;;;;;;;4808390;28;25887;-46
2022/06/07 12:56:47;;;;;;;;;;;;;;;;;;4813752;28;28388;-47
2022/06/07 12:59:12;;;;;;;;;;;;;;;;;;4823604;28;33387;-48
2022/06/07 13:01:37;;;;;;;;;;;;;;;;;;4817892;28;26852;-45
2022/06/07 13:04:02;;;;;;;;;;;;;;;;;;4811021;28;22820;-45
2022/06/07 13:06:28;;;;;;;;;;;;;;;;;;4779054;28;24174;-46
2022/06/07 13:08:53;;;;;;;;;;;;;;;;;;4730794;28;25910;-47
2022/06/07 13:11:18;;;;;;;;;;;;;;;;;;4747239;28;23828;-46
2022/06/07 13:13:45;;;;;;;;;;;;;;;;;;4716898;28;26781;-46
2022/06/07 13:16:10;;;;;;;;;;;;;;;;;;4758803;28;20590;-47
2022/06/07 13:18:35;;;;;;;;;;;;;;;;;;4803356;28;19921;-46
2022/06/07 13:21:00;;;;;;;;;;;;;;;;;;4896191;28;21145;-47
2022/06/07 13:23:25;;;;;;;;;;;;;;;;;;4925217;28;21370;-46
2022/06/07 13:25:50;;;;;;;;;;;;;;;;;;4943015;28;19920;-46
2022/06/07 13:28:16;;;;;;;;;;;;;;;;;;4923232;28;20721;-45
2022/06/07 13:30:41;;;;;;;;;;;;;;;;;;4954747;28;20399;-46
2022/06/07 13:33:09;;;;;;;;;;;;;;;;;;4965889;28;21249;-46
2022/06/07 13:35:35;;;;;;;;;;;;;;;;;;4968908;28;19995;-46
2022/06/07 13:38:00;;;;;;;;;;;;;;;;;;4962328;28;20409;-45
2022/06/07 13:40:25;;;;;;;;;;;;;;;;;;4974046;28;19972;-47
2022/06/07 13:42:50;;;;;;;;;;;;;;;;;;4977196;28;19924;-46
2022/06/07 13:45:16;;;;;;;;;;;;;;;;;;4982571;28;20381;-46
2022/06/07 13:47:41;;;;;;;;;;;;;;;;;;5000041;28;19921;-46
2022/06/07 13:55:34;;;;;;;;;;;;;;;;;;4948845;28;21196;-47
2022/06/07 13:58:00;;;;;;;;;;;;;;;;;;4960236;28;19921;-45
2022/06/07 14:00:25;;;;;;;;;;;;;;;;;;4935647;28;20763;-47
2022/06/07 14:02:50;;;;;;;;;;;;;;;;;;4877194;28;20349;-46
2022/06/07 14:05:15;;;;;;;;;;;;;;;;;;4904754;28;20147;-46
2022/06/07 14:07:40;;;;;;;;;;;;;;;;;;4932422;28;19921;-47
2022/06/07 14:10:05;;;;;;;;;;;;;;;;;;4989583;28;19925;-45
2022/06/07 14:12:31;;;;;;;;;;;;;;;;;;5001232;28;19971;-48
2022/06/07 14:14:56;;;;;;;;;;;;;;;;;;5011427;28;19950;-47
2022/06/07 14:17:22;;;;;;;;;;;;;;;;;;4994961;28;20027;-47
2022/06/07 14:19:49;;;;;;;;;;;;;;;;;;5004034;28;21059;-44
2022/06/07 14:22:15;;;;;;;;;;;;;;;;;;5015629;28;19917;-47
2022/06/07 14:24:40;;;;;;;;;;;;;;;;;;5018197;28;19928;-46
2022/06/07 14:27:05;;;;;;;;;;;;;;;;;;5009849;28;20329;-44
2022/06/07 14:29:30;;;;;;;;;;;;;;;;;;5020317;28;20708;-45
2022/06/07 14:31:56;;;;;;;;;;;;;;;;;;5006952;28;19924;-46
2022/06/07 14:34:21;;;;;;;;;;;;;;;;;;5002439;28;19983;-47
2022/06/07 14:36:46;;;;;;;;;;;;;;;;;;5006297;28;19921;-47
2022/06/07 14:39:11;;;;;;;;;;;;;;;;;;5016308;28;19921;-45
2022/06/07 14:41:36;;;;;;;;;;;;;;;;;;5020901;28;20449;-46
2022/06/07 14:44:01;;;;;;;;;;;;;;;;;;5025261;28;19932;-46
2022/06/07 14:46:26;;;;;;;;;;;;;;;;;;5019647;28;19916;-46
2022/06/07 14:48:54;;;;;;;;;;;;;;;;;;5013565;28;19974;-47
2022/06/07 14:51:19;;;;;;;;;;;;;;;;;;4993073;28;19920;-44
2022/06/07 14:53:44;;;;;;;;;;;;;;;;;;4996669;28;19921;-46
2022/06/07 14:56:09;;;;;;;;;;;;;;;;;;5006639;28;19920;-46
2022/06/07 14:58:35;;;;;;;;;;;;;;;;;;5013696;28;19927;-45
2022/06/07 15:01:00;;;;;;;;;;;;;;;;;;5019655;28;19960;-47
2022/06/07 15:03:25;;;;;;;;;;;;;;;;;;5028936;28;19924;-48
2022/06/07 15:05:51;;;;;;;;;;;;;;;;;;5036920;28;19913;-45
2022/06/07 15:08:17;;;;;;;;;;;;;;;;;;5061731;28;20059;-46
2022/06/07 15:10:42;;;;;;;;;;;;;;;;;;5052069;28;20268;-46
2022/06/07 15:13:08;;;;;;;;;;;;;;;;;;5054095;28;21628;-45
2022/06/07 15:15:33;;;;;;;;;;;;;;;;;;5066529;28;19913;-45
2022/06/07 15:17:58;;;;;;;;;;;;;;;;;;5053561;28;19952;-48
2022/06/07 15:20:24;;;;;;;;;;;;;;;;;;5053113;28;19919;-47
2022/06/07 15:22:52;;;;;;;;;;;;;;;;;;5054691;28;20364;-46
2022/06/07 15:25:17;;;;;;;;;;;;;;;;;;5055554;28;19916;-45
2022/06/07 15:27:42;;;;;;;;;;;;;;;;;;5050847;28;19935;-46
2022/06/07 15:30:08;;;;;;;;;;;;;;;;;;5054497;28;19913;-46
2022/06/07 15:32:33;;;;;;;;;;;;;;;;;;5051700;28;19913;-46
2022/06/07 15:35:02;;;;;;;;;;;;;;;;;;5052505;28;19943;-45
2022/06/07 15:37:27;;;;;;;;;;;;;;;;;;5052385;28;19919;-46
2022/06/07 15:39:53;;;;;;;;;;;;;;;;;;5054293;28;20371;-46
2022/06/07 15:45:02;;;;;;;;;;;;;;;;;;5055137;28;19935;-47
2022/06/07 15:47:27;;;;;;;;;;;;;;;;;;5054162;28;20020;-47
2022/06/07 15:49:52;;;;;;;;;;;;;;;;;;5054908;28;19913;-45
2022/06/07 15:52:18;;;;;;;;;;;;;;;;;;5052538;28;19957;-46
2022/06/07 15:54:43;;;;;;;;;;;;;;;;;;5053171;28;19919;-46
2022/06/07 15:57:09;;;;;;;;;;;;;;;;;;5055153;28;19912;-47
2022/06/07 15:59:35;;;;;;;;;;;;;;;;;;5054371;28;19913;-46
2022/06/07 16:02:02;;;;;;;;;;;;;;;;;;5054096;28;19951;-47
2022/06/07 16:04:28;;;;;;;;;;;;;;;;;;5055015;28;19913;-45
2022/06/07 16:06:53;;;;;;;;;;;;;;;;;;5052414;28;19920;-44
2022/06/07 16:09:18;;;;;;;;;;;;;;;;;;5051700;28;20271;-44
2022/06/07 16:11:45;;;;;;;;;;;;;;;;;;5053109;28;19912;-44
2022/06/07 16:14:13;;;;;;;;;;;;;;;;;;5054275;28;19909;-43
2022/06/07 16:16:38;;;;;;;;;;;;;;;;;;5054221;28;20275;-44
2022/06/07 16:19:03;;;;;;;;;;;;;;;;;;5054204;28;19909;-44
2022/06/07 16:21:30;;;;;;;;;;;;;;;;;;5054295;28;19999;-44
2022/06/07 16:23:56;;;;;;;;;;;;;;;;;;5054093;28;19913;-45
2022/06/07 16:26:23;;;;;;;;;;;;;;;;;;5054160;28;19915;-44
2022/06/07 16:34:17;;;;;;;;;;;;;;;;;;5054316;28;19916;-44
2022/06/07 16:36:43;;;;;;;;;;;;;;;;;;5054014;28;19916;-43
2022/06/07 16:39:11;;;;;;;;;;;;;;;;;;5054073;28;19909;-44
2022/06/07 16:41:36;;;;;;;;;;;;;;;;;;5053974;28;19921;-45
2022/06/07 16:44:01;;;;;;;;;;;;;;;;;;5053893;28;19919;-44
2022/06/07 16:46:27;;;;;;;;;;;;;;;;;;5054008;28;19909;-45
2022/06/07 16:48:52;;;;;;;;;;;;;;;;;;5054162;28;19915;-44
2022/06/07 16:51:18;;;;;;;;;;;;;;;;;;5054159;28;19909;-43
2022/06/07 16:53:44;;;;;;;;;;;;;;;;;;5053880;28;20371;-44
2022/06/07 16:56:09;;;;;;;;;;;;;;;;;;5053927;28;19909;-44
2022/06/07 16:58:37;;;;;;;;;;;;;;;;;;5053886;28;19909;-44
2022/06/07 17:01:03;;;;;;;;;;;;;;;;;;5054006;28;19909;-44
2022/06/07 17:03:28;;;;;;;;;;;;;;;;;;5053894;28;19913;-44
2022/06/07 17:05:53;;;;;;;;;;;;;;;;;;5053986;28;20356;-43
2022/06/07 17:08:18;;;;;;;;;;;;;;;;;;5053823;28;20333;-44
2022/06/07 17:10:46;;;;;;;;;;;;;;;;;;5053904;28;19916;-44
2022/06/07 17:13:13;;;;;;;;;;;;;;;;;;5053826;28;19931;-43